Time;durP1;ratioP1;P1;durP2;ratioP2;P2;SDS_P1;SDS_P2;PMS_P1;PMS_P2;Temp;Humidity;BMP_temperature;BMP_pressure;BME280_temperature;BME280_humidity;BME280_pressure;Samples;Min_cycle;Max_cycle;Signal;HPM_P1;HPM_P2
2022/06/07 00:03:46;;;;;;;30.33;22.78;;;;;;;19.77;100.00;100177.66;712231;1178;116262;-75
2022/06/07 00:18:49;;;;;;;39.35;27.20;;;;;;;19.84;100.00;100167.06;712259;1179;115847;-75
2022/06/07 00:33:51;;;;;;;44.70;30.80;;;;;;;19.99;100.00;100169.56;712164;1178;116317;-75
2022/06/07 00:48:54;;;;;;;44.17;30.30;;;;;;;20.15;100.00;100147.88;712307;1177;116019;-75
2022/06/07 01:03:57;;;;;;;49.70;34.17;;;;;;;20.21;100.00;100149.75;712168;1177;115783;-75
2022/06/07 01:19:00;;;;;;;52.60;33.10;;;;;;;20.16;100.00;100144.20;712125;1178;115531;-75
2022/06/07 01:34:04;;;;;;;53.75;33.10;;;;;;;20.05;100.00;100111.01;712117;1177;115282;-75
2022/06/07 01:49:06;;;;;;;55.70;34.40;;;;;;;19.92;100.00;100098.48;712186;1180;116035;-74
2022/06/07 02:04:10;;;;;;;55.28;36.05;;;;;;;19.80;100.00;100094.75;712266;1177;116091;-75
2022/06/07 02:19:13;;;;;;;57.18;35.90;;;;;;;19.71;100.00;100094.09;712406;1178;116637;-76
2022/06/07 02:34:17;;;;;;;52.90;32.85;;;;;;;19.68;100.00;100081.20;712604;1180;116237;-76
2022/06/07 02:49:19;;;;;;;57.75;33.60;;;;;;;19.55;100.00;100079.31;712291;1177;116277;-76
2022/06/07 03:04:22;;;;;;;61.45;36.90;;;;;;;19.45;100.00;100095.66;712297;1180;116102;-76
2022/06/07 03:19:28;;;;;;;65.00;38.08;;;;;;;19.49;100.00;100125.31;712470;1180;116066;-76
2022/06/07 03:34:31;;;;;;;57.55;35.60;;;;;;;19.67;100.00;100132.77;712151;1177;115617;-77
2022/06/07 03:49:33;;;;;;;60.10;37.10;;;;;;;19.68;100.00;100153.05;712200;1179;114872;-76
2022/06/07 04:04:36;;;;;;;50.37;31.93;;;;;;;19.72;100.00;100142.83;712198;1180;115573;-76
2022/06/07 04:19:40;;;;;;;70.07;41.87;;;;;;;19.83;100.00;100158.24;712382;1178;115257;-76
2022/06/07 04:34:42;;;;;;;71.78;39.30;;;;;;;20.09;100.00;100140.72;712143;1179;116145;-76
2022/06/07 04:49:45;;;;;;;74.90;40.00;;;;;;;20.00;100.00;100164.03;712312;1180;115914;-75
2022/06/07 05:04:48;;;;;;;71.10;35.73;;;;;;;20.25;100.00;100153.64;712149;1177;116306;-75
2022/06/07 05:19:50;;;;;;;61.13;33.00;;;;;;;20.49;100.00;100172.73;712384;1177;115754;-76
2022/06/07 05:34:52;;;;;;;60.33;32.63;;;;;;;21.02;100.00;100171.13;712051;1180;116130;-75
2022/06/07 05:49:55;;;;;;;45.37;25.93;;;;;;;21.40;100.00;100165.92;712737;1178;116069;-75
2022/06/07 06:04:57;;;;;;;37.53;21.88;;;;;;;21.84;100.00;100165.39;712099;1180;116218;-74
2022/06/07 06:19:59;;;;;;;28.85;18.70;;;;;;;21.92;100.00;100171.31;712478;1180;116107;-75
2022/06/07 06:35:02;;;;;;;22.40;14.13;;;;;;;22.56;100.00;100162.53;713160;1179;116435;-74
2022/06/07 06:50:04;;;;;;;17.18;11.98;;;;;;;23.05;96.04;100160.05;713256;1179;116371;-74
2022/06/07 07:05:07;;;;;;;13.05;10.15;;;;;;;23.42;92.38;100163.61;713261;1178;115099;-77
2022/06/07 07:20:11;;;;;;;12.80;9.83;;;;;;;23.93;90.83;100152.72;713273;1180;114842;-77
2022/06/07 07:35:13;;;;;;;10.87;8.13;;;;;;;24.58;87.41;100154.62;713657;1177;114682;-77
2022/06/07 07:50:16;;;;;;;9.00;7.45;;;;;;;25.66;84.88;100163.48;713600;1177;115800;-79
2022/06/07 08:05:18;;;;;;;8.95;6.73;;;;;;;25.86;83.37;100157.67;713936;1180;114866;-75
2022/06/07 08:20:22;;;;;;;9.85;7.85;;;;;;;25.99;80.09;100170.02;714224;1177;116049;-77
2022/06/07 08:51:15;;;;;;;8.33;6.30;;;;;;;25.73;79.31;100189.15;712542;1180;114872;-73
2022/06/07 09:06:24;;;;;;;8.10;6.70;;;;;;;25.41;79.44;100194.11;713376;1180;115262;-78
2022/06/07 09:21:31;;;;;;;9.23;7.13;;;;;;;26.15;79.35;100189.95;713595;1178;115099;-77
2022/06/07 09:36:38;;;;;;;6.70;5.70;;;;;;;27.69;77.25;100181.52;713776;1178;114361;-78
2022/06/07 09:51:41;;;;;;;6.43;5.75;;;;;;;28.44;73.73;100167.47;715280;1178;115011;-82
2022/06/07 10:06:49;;;;;;;6.30;4.93;;;;;;;29.36;72.93;100167.30;716700;1177;114899;-81
2022/06/07 10:22:37;;;;;;;5.17;4.67;;;;;;;29.87;69.03;100155.05;716444;1177;114619;-82
2022/06/07 10:37:53;;;;;;;4.60;3.40;;;;;;;30.23;67.01;100140.77;713714;1180;115579;-79
2022/06/07 10:53:19;;;;;;;5.03;4.53;;;;;;;30.18;67.37;100128.03;713427;1179;115553;-74
2022/06/07 11:24:05;;;;;;;5.18;3.50;;;;;;;30.86;58.51;100113.38;714014;1179;115272;-72
2022/06/07 11:39:18;;;;;;;3.73;3.18;;;;;;;31.99;59.19;100095.77;713400;1180;115114;-72
2022/06/07 11:54:23;;;;;;;4.68;3.18;;;;;;;31.34;57.39;100070.44;718557;1178;115832;-74
2022/06/07 12:09:28;;;;;;;2.65;2.45;;;;;;;32.96;57.67;100053.31;713924;1180;115998;-74
2022/06/07 12:24:43;;;;;;;4.40;3.40;;;;;;;32.41;56.11;100053.64;714148;1177;115725;-74
2022/06/07 12:39:56;;;;;;;3.40;3.03;;;;;;;32.67;55.47;100050.66;713429;1178;115793;-74
2022/06/07 12:55:11;;;;;;;3.45;3.10;;;;;;;33.23;54.00;100040.20;713855;1180;115619;-75
2022/06/07 13:10:20;;;;;;;3.47;3.17;;;;;;;32.57;53.81;100034.48;713637;1178;115954;-75
2022/06/07 13:25:40;;;;;;;5.00;3.00;;;;;;;31.47;53.88;100041.09;713139;1178;115391;-75
2022/06/07 13:40:44;;;;;;;7.03;5.70;;;;;;;31.76;54.50;100013.27;713428;1180;115385;-75
2022/06/07 13:55:50;;;;;;;4.23;2.87;;;;;;;31.01;54.21;100018.57;713479;1178;116101;-75
2022/06/07 14:10:54;;;;;;;2.90;2.20;;;;;;;31.91;53.37;100021.25;714582;1178;115927;-75
2022/06/07 14:25:56;;;;;;;3.50;2.40;;;;;;;31.64;53.27;100024.47;713837;1180;115733;-74
2022/06/07 14:40:59;;;;;;;3.30;2.70;;;;;;;31.10;53.52;100004.47;713237;1177;115468;-73
2022/06/07 14:56:19;;;;;;;2.65;2.30;;;;;;;32.38;53.18;99996.44;713861;1180;115966;-74
2022/06/07 15:11:34;;;;;;;2.95;2.50;;;;;;;32.20;51.85;99990.63;713117;1177;115773;-69
2022/06/07 15:26:36;;;;;;;3.53;2.93;;;;;;;31.27;52.07;99988.64;712848;1179;114260;-75
2022/06/07 15:57:02;;;;;;;2.90;2.60;;;;;;;28.94;54.05;99972.95;712254;1177;114258;-74
2022/06/07 16:12:04;;;;;;;4.07;3.10;;;;;;;28.59;54.40;99974.42;712368;1178;115230;-74
2022/06/07 16:33:18;;;;;;;15.70;10.93;;;;;;;28.37;55.54;99970.81;712254;1178;115635;-75
2022/06/07 16:42:32;;;;;;;6.55;4.30;;;;;;;27.67;57.78;99964.63;712028;1178;115396;-75
2022/06/07 16:57:35;;;;;;;14.58;10.95;;;;;;;27.54;59.44;99984.70;712250;1178;115729;-73
2022/06/07 17:12:38;;;;;;;13.13;10.28;;;;;;;26.90;59.95;99996.94;712406;1180;115096;-75
2022/06/07 17:27:41;;;;;;;7.67;4.40;;;;;;;26.77;61.11;100000.02;712336;1177;115274;-74
2022/06/07 17:42:44;;;;;;;4.05;3.35;;;;;;;26.38;60.68;100000.79;712582;1178;115564;-75
2022/06/07 17:57:48;;;;;;;5.03;3.33;;;;;;;25.86;61.13;100001.86;712286;1180;115581;-75
2022/06/07 18:12:51;;;;;;;6.85;3.95;;;;;;;25.49;62.92;100002.30;713088;1178;115537;-76
2022/06/07 18:27:53;;;;;;;5.20;3.75;;;;;;;25.01;63.25;100001.63;712886;1180;115921;-75
2022/06/07 18:42:56;;;;;;;6.27;4.30;;;;;;;24.77;65.49;100015.09;712701;1180;115016;-76
2022/06/07 18:57:58;;;;;;;9.55;6.93;;;;;;;24.18;69.79;100031.98;712495;1179;115006;-75
2022/06/07 19:13:03;;;;;;;7.73;5.60;;;;;;;23.88;72.73;100050.77;713013;1179;115710;-76
2022/06/07 19:28:06;;;;;;;9.53;7.30;;;;;;;23.36;74.95;100056.61;712477;1180;115949;-76
2022/06/07 19:43:11;;;;;;;14.48;10.90;;;;;;;23.57;76.33;100068.70;712334;1177;115263;-76
2022/06/07 19:58:14;;;;;;;8.70;6.90;;;;;;;23.24;77.45;100076.12;712749;1177;116069;-76
2022/06/07 20:13:16;;;;;;;10.13;7.77;;;;;;;22.84;80.29;100070.36;712376;1180;115959;-79
2022/06/07 20:28:19;;;;;;;12.00;9.10;;;;;;;22.91;81.59;100050.53;712817;1179;115426;-80
2022/06/07 20:43:22;;;;;;;15.07;9.10;;;;;;;22.91;83.24;100033.66;712543;1177;115677;-76
2022/06/07 20:58:25;;;;;;;13.95;9.85;;;;;;;22.82;85.19;100016.27;713035;1177;115816;-76
2022/06/07 21:13:27;;;;;;;16.83;9.45;;;;;;;22.64;86.48;100014.42;713128;1177;114953;-76
2022/06/07 21:28:29;;;;;;;14.40;8.93;;;;;;;22.43;87.84;100003.94;712392;1179;116174;-76
2022/06/07 21:43:34;;;;;;;11.57;8.90;;;;;;;22.29;88.91;100005.07;712499;1177;115506;-76
2022/06/07 21:58:37;;;;;;;14.75;10.05;;;;;;;22.25;90.38;99995.83;712425;1177;114418;-76
2022/06/07 22:13:40;;;;;;;15.37;10.00;;;;;;;22.02;91.20;99999.93;712387;1178;115132;-76
2022/06/07 22:44:04;;;;;;;14.80;10.70;;;;;;;21.86;92.71;99971.92;712709;1177;115194;-75
2022/06/07 22:59:16;;;;;;;16.60;11.40;;;;;;;21.81;94.68;99960.27;712518;1177;115502;-75
2022/06/07 23:29:41;;;;;;;17.03;11.20;;;;;;;21.47;95.35;99943.63;712186;1179;115245;-75
2022/06/07 23:44:43;;;;;;;16.60;11.88;;;;;;;21.48;95.85;99951.42;712217;1178;116078;-75
2022/06/07 23:59:52;;;;;;;19.55;13.20;;;;;;;21.28;96.83;99949.68;712713;1177;115945;-76
